This is the latest recevied weather packets stored in our database for station/object KI5GCD-13. If no packets are shown the sender has not sent any weather packets the latest 10 day(s).
| Time | Temp. | Humidity | Pressure | Rain* | Wind** | Luminosity | Snow |
|---|---|---|---|---|---|---|---|
| 1777971587 | 15° C | 99% | 1002.3 hPa | 1.78 mm | 0.89 m/s, 237° | - | - |
| 1777971289 | 15° C | 99% | 1001.9 hPa | 0 mm | 0.45 m/s, 251° | - | - |
| 1777970987 | 14.44° C | 99% | 1002.2 hPa | 0 mm | 0 m/s | - | - |
| 1777970687 | 14.44° C | 99% | 1002.4 hPa | 0 mm | 0 m/s | - | - |
| 1777970388 | 14.44° C | 99% | 1002.6 hPa | 1.02 mm | 0 m/s | - | - |
| 1777970087 | 14.44° C | 99% | 1002.5 hPa | 2.79 mm | 0 m/s | - | - |
| 1777969787 | 14.44° C | 99% | 1002.1 hPa | 7.62 mm | 0 m/s | - | - |
| 1777969487 | 14.44° C | 99% | 1002.7 hPa | 5.84 mm | 0.45 m/s, 221° | - | - |
| 1777969189 | 14.44° C | 99% | 1003.6 hPa | 0 mm | 0.89 m/s, 281° | - | - |
| 1777968888 | 14.44° C | 99% | 1002.4 hPa | 1.78 mm | 0.45 m/s, 279° | - | - |
| 1777968588 | 14.44° C | 99% | 1001.9 hPa | 2.79 mm | 0.45 m/s, 270° | - | - |
| 1777968287 | 14.44° C | 99% | 1001.6 hPa | 4.57 mm | 0.89 m/s, 232° | - | - |
| 1777967987 | 14.44° C | 99% | 1002.7 hPa | 7.62 mm | 1.34 m/s, 67° | - | - |
| 1777967688 | 15° C | 99% | 1002.9 hPa | 14.99 mm | 0.89 m/s, 260° | - | - |
| 1777967388 | 15° C | 99% | 1000.7 hPa | 8.89 mm | 0.45 m/s, 260° | - | - |
| 1777967088 | 15° C | 99% | 1003.2 hPa | 2.79 mm | 0 m/s | - | - |
| 1777966789 | 14.44° C | 99% | 1002.3 hPa | 10.67 mm | 0.45 m/s, 265° | - | - |
| 1777966488 | 14.44° C | 99% | 1001.7 hPa | 18.54 mm | 0 m/s | - | - |
| 1777966256 | 14.44° C | 99% | 1001.7 hPa | 18.54 mm | 0 m/s | - | - |
| 1777965889 | 14.44° C | 99% | 1003.3 hPa | 17.78 mm | 0.45 m/s, 248° | - | - |
| 1777965587 | 14.44° C | 99% | 1002.8 hPa | 19.81 mm | 0.45 m/s, 292° | - | - |
| 1777965287 | 14.44° C | 99% | 1003.1 hPa | 62.23 mm | 2.24 m/s, 39° | - | - |
| 1777964987 | 15° C | 99% | 1003.2 hPa | 74.93 mm | 4.92 m/s, 45° | - | - |
| 1777964687 | 15.56° C | 99% | 1003.5 hPa | 33.53 mm | 4.02 m/s, 51° | - | - |
| 1777964387 | 16.11° C | 99% | 1003.1 hPa | 0 mm | 1.34 m/s, 345° | - | - |
* Rain latest hour (hover to see other rain measurements)
** Current wind speed in m/s (hover to see current wind gust speed)